Time;durP1;ratioP1;P1;durP2;ratioP2;P2;SDS_P1;SDS_P2;PMS_P1;PMS_P2;Temp;Humidity;BMP_temperature;BMP_pressure;BME280_temperature;BME280_humidity;BME280_pressure;Samples;Min_cycle;Max_cycle;Signal;HPM_P1;HPM_P2
2022/01/10 00:01:53;;;;;;;;;;;0.10;99.90;;;;;;5021584;28;21135;-70
2022/01/10 00:04:20;;;;;;;;;;;0.10;99.90;;;;;;5021871;28;20060;-68
2022/01/10 00:06:47;;;;;;;;;;;0.10;99.90;;;;;;5023280;28;20061;-70
2022/01/10 00:09:15;;;;;;;;;;;0.10;99.90;;;;;;5022725;28;20067;-69
2022/01/10 00:11:42;;;;;;;;;;;0.10;99.90;;;;;;5021820;28;20069;-69
2022/01/10 00:14:10;;;;;;;;;;;0.10;99.90;;;;;;5006390;28;20179;-69
2022/01/10 00:16:37;;;;;;;;;;;0.30;99.90;;;;;;5021619;28;20060;-70
2022/01/10 00:19:04;;;;;;;;;;;0.40;99.90;;;;;;5021799;28;21025;-69
2022/01/10 00:21:31;;;;;;;;;;;0.50;99.90;;;;;;5005913;28;21162;-68
2022/01/10 00:23:58;;;;;;;;;;;0.60;99.90;;;;;;5022394;28;21039;-68
2022/01/10 00:26:27;;;;;;;;;;;0.60;99.90;;;;;;5022245;28;20099;-70
2022/01/10 00:28:54;;;;;;;;;;;0.70;99.90;;;;;;5005011;28;20066;-70
2022/01/10 00:31:21;;;;;;;;;;;0.70;99.90;;;;;;5021921;28;20213;-70
2022/01/10 00:33:48;;;;;;;;;;;0.80;99.90;;;;;;5021950;28;21117;-70
2022/01/10 00:36:15;;;;;;;;;;;0.80;99.90;;;;;;5021560;28;20074;-70
2022/01/10 00:38:42;;;;;;;;;;;0.90;99.90;;;;;;5021038;28;20060;-67
2022/01/10 00:41:10;;;;;;;;;;;0.90;99.90;;;;;;5022064;28;20051;-68
2022/01/10 00:43:45;;;;;;;;;;;0.90;99.90;;;;;;5021417;28;20057;-68
2022/01/10 00:46:12;;;;;;;;;;;0.80;99.90;;;;;;5022331;28;20060;-70
2022/01/10 00:48:39;;;;;;;;;;;0.70;99.90;;;;;;5021070;28;20133;-68
2022/01/10 00:51:07;;;;;;;;;;;0.50;99.90;;;;;;5022480;28;20060;-70
2022/01/10 00:53:34;;;;;;;;;;;0.40;99.90;;;;;;5021410;28;20089;-70
2022/01/10 00:56:01;;;;;;;;;;;0.30;99.90;;;;;;5022380;28;21151;-70
2022/01/10 00:58:28;;;;;;;;;;;0.10;99.90;;;;;;5020643;28;21194;-69
2022/01/10 01:00:57;;;;;;;;;;;0.00;99.90;;;;;;5022047;28;20108;-70
2022/01/10 01:03:24;;;;;;;;;;;0.00;99.90;;;;;;5004954;28;20140;-70
2022/01/10 01:05:51;;;;;;;;;;;-0.10;99.90;;;;;;5021713;28;20110;-69
2022/01/10 01:08:18;;;;;;;;;;;-0.10;99.90;;;;;;5021028;28;20060;-69
2022/01/10 01:11:20;;;;;;;;;;;-0.20;99.90;;;;;;5004725;28;20111;-70
2022/01/10 01:13:54;;;;;;;;;;;-0.20;99.90;;;;;;5020626;28;20052;-69
2022/01/10 01:16:43;;;;;;;;;;;-0.30;99.90;;;;;;5021072;28;20539;-69
2022/01/10 01:19:52;;;;;;;;;;;-0.30;99.90;;;;;;5021048;28;20052;-70
2022/01/10 01:24:47;;;;;;;;;;;-0.50;99.90;;;;;;5004751;28;20175;-70
2022/01/10 01:27:14;;;;;;;;;;;-0.50;99.90;;;;;;5021172;28;20100;-70
2022/01/10 01:29:41;;;;;;;;;;;-0.50;99.90;;;;;;5020880;28;21138;-69
2022/01/10 01:32:10;;;;;;;;;;;-0.60;99.90;;;;;;5004471;28;20105;-69
2022/01/10 01:34:37;;;;;;;;;;;-0.60;99.90;;;;;;5021645;28;20074;-69
2022/01/10 01:37:04;;;;;;;;;;;-0.60;99.90;;;;;;5021148;28;20060;-69
2022/01/10 01:39:32;;;;;;;;;;;-0.60;99.90;;;;;;5003874;28;21140;-70
2022/01/10 01:42:05;;;;;;;;;;;-0.60;99.90;;;;;;5020762;28;21152;-69
2022/01/10 01:44:33;;;;;;;;;;;-0.70;99.90;;;;;;5010403;28;20071;-70
2022/01/10 01:47:01;;;;;;;;;;;-0.70;99.90;;;;;;5043745;28;20377;-70
2022/01/10 01:49:31;;;;;;;;;;;-0.70;99.90;;;;;;5042792;28;20128;-69
2022/01/10 01:51:58;;;;;;;;;;;-0.60;99.90;;;;;;5039548;28;20051;-71
2022/01/10 01:54:25;;;;;;;;;;;-0.70;99.90;;;;;;5039202;28;21043;-69
2022/01/10 01:56:53;;;;;;;;;;;-0.70;99.90;;;;;;5025502;28;20084;-70
2022/01/10 01:59:20;;;;;;;;;;;-0.80;99.90;;;;;;5040641;28;20091;-70
2022/01/10 02:01:47;;;;;;;;;;;-0.80;99.90;;;;;;5040592;28;20177;-67
2022/01/10 02:04:14;;;;;;;;;;;-0.80;99.90;;;;;;5041625;28;20082;-70
2022/01/10 02:06:45;;;;;;;;;;;-0.80;99.90;;;;;;5041483;28;20134;-70
2022/01/10 02:09:14;;;;;;;;;;;-0.70;99.90;;;;;;5024297;28;21466;-70
2022/01/10 02:11:45;;;;;;;;;;;-0.70;99.90;;;;;;5041193;28;20051;-69
2022/01/10 02:14:13;;;;;;;;;;;-0.70;99.90;;;;;;5043426;28;20073;-70
2022/01/10 02:16:45;;;;;;;;;;;-0.60;99.90;;;;;;5027729;28;20088;-69
2022/01/10 02:19:22;;;;;;;;;;;-0.50;99.90;;;;;;5019269;28;21137;-67
2022/01/10 02:21:51;;;;;;;;;;;-0.50;99.90;;;;;;5003841;28;20067;-70
2022/01/10 02:24:20;;;;;;;;;;;-0.50;99.90;;;;;;5021008;28;20060;-69
2022/01/10 02:26:48;;;;;;;;;;;-0.50;99.90;;;;;;5020174;28;20264;-68
2022/01/10 02:29:15;;;;;;;;;;;-0.40;99.90;;;;;;5019698;28;20059;-70
2022/01/10 02:31:42;;;;;;;;;;;-0.50;99.90;;;;;;5020748;28;20096;-70
2022/01/10 02:34:10;;;;;;;;;;;-0.50;99.90;;;;;;5020048;28;20091;-69
2022/01/10 02:36:37;;;;;;;;;;;-0.60;99.90;;;;;;5020466;28;20051;-70
2022/01/10 02:39:09;;;;;;;;;;;-0.60;99.90;;;;;;5020066;28;21044;-69
2022/01/10 02:41:37;;;;;;;;;;;-0.70;99.90;;;;;;5003560;28;20051;-70
2022/01/10 02:44:05;;;;;;;;;;;-0.70;99.90;;;;;;5019244;28;21157;-69
2022/01/10 02:46:34;;;;;;;;;;;-0.80;99.90;;;;;;5019445;28;20094;-69
2022/01/10 02:49:02;;;;;;;;;;;-0.80;99.90;;;;;;5019626;28;20065;-69
2022/01/10 02:51:29;;;;;;;;;;;-0.80;99.90;;;;;;5020095;28;21115;-67
2022/01/10 02:53:56;;;;;;;;;;;-0.90;99.90;;;;;;5019643;28;21259;-68
2022/01/10 02:56:25;;;;;;;;;;;-0.90;99.90;;;;;;5018479;28;21288;-69
2022/01/10 02:58:52;;;;;;;;;;;-0.90;99.90;;;;;;5002343;28;20077;-69
2022/01/10 03:01:19;;;;;;;;;;;-1.00;99.90;;;;;;4995803;28;21149;-68
2022/01/10 03:03:47;;;;;;;;;;;-1.00;99.90;;;;;;5002064;28;20058;-69
2022/01/10 03:06:14;;;;;;;;;;;-1.00;99.90;;;;;;5020426;28;20255;-67
2022/01/10 03:08:41;;;;;;;;;;;-1.00;99.90;;;;;;5018938;28;20074;-68
2022/01/10 03:11:09;;;;;;;;;;;-1.00;99.90;;;;;;5022305;28;20066;-68
2022/01/10 03:13:38;;;;;;;;;;;-1.10;99.90;;;;;;5024148;28;20182;-68
2022/01/10 03:16:05;;;;;;;;;;;-1.10;99.90;;;;;;5007778;28;20068;-69
2022/01/10 03:18:33;;;;;;;;;;;-1.10;99.90;;;;;;5022974;28;20069;-68
2022/01/10 03:21:00;;;;;;;;;;;-1.10;99.90;;;;;;5023769;28;20060;-69
2022/01/10 03:23:27;;;;;;;;;;;-1.10;99.90;;;;;;5006978;28;20162;-68
2022/01/10 03:25:54;;;;;;;;;;;-1.10;99.90;;;;;;5023770;28;20051;-68
2022/01/10 03:28:21;;;;;;;;;;;-1.00;99.90;;;;;;5005762;28;20059;-67
2022/01/10 03:30:50;;;;;;;;;;;-1.00;99.90;;;;;;5023998;28;20087;-68
2022/01/10 03:33:20;;;;;;;;;;;-1.00;99.90;;;;;;5023503;28;20051;-69
2022/01/10 03:35:47;;;;;;;;;;;-1.10;99.90;;;;;;5023106;28;21163;-68
2022/01/10 03:38:18;;;;;;;;;;;-1.10;99.90;;;;;;5023548;28;21109;-68
2022/01/10 03:40:45;;;;;;;;;;;-1.00;99.90;;;;;;5023642;28;20051;-68
2022/01/10 03:43:17;;;;;;;;;;;-1.00;99.90;;;;;;5023064;28;20141;-68
2022/01/10 03:45:45;;;;;;;;;;;-1.00;99.90;;;;;;5023137;28;20066;-69
2022/01/10 03:48:15;;;;;;;;;;;-0.90;99.90;;;;;;5022333;28;20149;-67
2022/01/10 03:50:42;;;;;;;;;;;-1.00;99.90;;;;;;5023739;28;20234;-66
2022/01/10 03:53:10;;;;;;;;;;;-1.00;99.90;;;;;;5022903;28;20051;-68
2022/01/10 03:55:39;;;;;;;;;;;-1.10;99.90;;;;;;5006907;28;21155;-68
2022/01/10 03:58:08;;;;;;;;;;;-1.20;99.90;;;;;;5022449;28;20061;-68
2022/01/10 04:00:35;;;;;;;;;;;-1.20;99.90;;;;;;5022747;28;20059;-68
2022/01/10 04:03:05;;;;;;;;;;;-1.20;99.90;;;;;;5011638;28;20173;-69
2022/01/10 04:06:01;;;;;;;;;;;-1.20;99.90;;;;;;5023792;28;20190;-68
2022/01/10 04:08:28;;;;;;;;;;;-1.20;99.90;;;;;;5007030;28;20060;-68
2022/01/10 04:10:56;;;;;;;;;;;-1.10;99.90;;;;;;5023393;28;21119;-68
2022/01/10 04:13:24;;;;;;;;;;;-1.10;99.90;;;;;;5022898;28;20075;-69
2022/01/10 04:15:52;;;;;;;;;;;-1.10;99.90;;;;;;5023267;28;21173;-68
2022/01/10 04:18:20;;;;;;;;;;;-1.00;99.90;;;;;;5005641;28;20193;-68
2022/01/10 04:20:47;;;;;;;;;;;-0.90;99.90;;;;;;5023233;28;20101;-68
2022/01/10 04:23:17;;;;;;;;;;;-0.80;99.90;;;;;;5022239;28;21137;-68
2022/01/10 04:25:45;;;;;;;;;;;-0.70;99.90;;;;;;5005919;28;20062;-69
2022/01/10 04:28:14;;;;;;;;;;;-0.60;99.90;;;;;;5022180;28;20161;-69
2022/01/10 04:30:41;;;;;;;;;;;-0.50;99.90;;;;;;5023393;28;20079;-69
2022/01/10 04:33:10;;;;;;;;;;;-0.40;99.90;;;;;;5022355;28;21431;-68
2022/01/10 04:35:38;;;;;;;;;;;-0.40;99.90;;;;;;5022773;28;20068;-68
2022/01/10 04:38:06;;;;;;;;;;;-0.30;99.90;;;;;;5021546;28;20060;-68
2022/01/10 04:40:35;;;;;;;;;;;-0.30;99.90;;;;;;5022912;28;20060;-69
2022/01/10 04:43:02;;;;;;;;;;;-0.40;99.90;;;;;;5022660;28;21059;-69
2022/01/10 04:45:29;;;;;;;;;;;-0.50;99.90;;;;;;5005289;28;20190;-69
2022/01/10 04:47:58;;;;;;;;;;;-0.60;99.90;;;;;;5021519;28;20059;-69
2022/01/10 04:50:55;;;;;;;;;;;-0.60;99.90;;;;;;5005947;28;20059;-69
2022/01/10 04:53:23;;;;;;;;;;;-0.80;99.90;;;;;;5022734;28;20052;-69
2022/01/10 04:55:51;;;;;;;;;;;-0.80;99.90;;;;;;5022067;28;20185;-69
2022/01/10 04:58:18;;;;;;;;;;;-0.90;99.90;;;;;;5021479;28;21124;-69
2022/01/10 05:00:46;;;;;;;;;;;-1.00;99.90;;;;;;5023509;28;20120;-68
2022/01/10 05:03:17;;;;;;;;;;;-1.00;99.90;;;;;;5021318;28;20198;-68
2022/01/10 05:05:44;;;;;;;;;;;-1.00;99.90;;;;;;5005385;28;20197;-69
2022/01/10 05:08:12;;;;;;;;;;;-1.00;99.90;;;;;;5021486;28;20065;-68
2022/01/10 05:10:39;;;;;;;;;;;-0.90;99.90;;;;;;5021853;28;20051;-68
2022/01/10 05:13:08;;;;;;;;;;;-0.90;99.90;;;;;;5021384;28;20060;-67
2022/01/10 05:15:35;;;;;;;;;;;-0.90;99.90;;;;;;5020949;28;20091;-69
2022/01/10 05:18:03;;;;;;;;;;;-0.90;99.90;;;;;;5021933;28;20060;-69
2022/01/10 05:20:30;;;;;;;;;;;-0.80;99.90;;;;;;5021648;28;20065;-67
2022/01/10 05:22:57;;;;;;;;;;;-0.80;99.90;;;;;;5021467;28;20065;-68
2022/01/10 05:25:24;;;;;;;;;;;-0.70;99.90;;;;;;5021696;28;20254;-69
2022/01/10 05:27:52;;;;;;;;;;;-0.70;99.90;;;;;;5020847;28;20149;-69
2022/01/10 05:30:21;;;;;;;;;;;-0.60;99.90;;;;;;5020742;28;20058;-69
2022/01/10 05:32:48;;;;;;;;;;;-0.70;99.90;;;;;;5004378;28;20075;-69
2022/01/10 05:35:39;;;;;;;;;;;-0.60;99.90;;;;;;5003337;28;20196;-69
2022/01/10 05:38:07;;;;;;;;;;;-0.60;99.90;;;;;;5020567;28;20061;-68
2022/01/10 05:40:34;;;;;;;;;;;-0.50;99.90;;;;;;5021543;28;20219;-70
2022/01/10 05:43:02;;;;;;;;;;;-0.40;99.90;;;;;;5020781;28;20051;-70
2022/01/10 05:45:31;;;;;;;;;;;-0.30;99.90;;;;;;5022201;28;21181;-70
2022/01/10 05:48:07;;;;;;;;;;;-0.30;99.90;;;;;;5021090;28;20075;-69
2022/01/10 05:50:36;;;;;;;;;;;-0.20;99.90;;;;;;5021360;28;20069;-69
2022/01/10 05:53:08;;;;;;;;;;;-0.10;99.90;;;;;;5016429;28;20084;-68
2022/01/10 05:55:36;;;;;;;;;;;-0.10;99.90;;;;;;5002122;28;21256;-69
2022/01/10 05:58:05;;;;;;;;;;;0.00;99.90;;;;;;5003028;28;21032;-69
2022/01/10 06:00:34;;;;;;;;;;;0.00;99.90;;;;;;5005529;28;20067;-68
2022/01/10 06:03:01;;;;;;;;;;;0.10;99.90;;;;;;5005850;28;20095;-69
2022/01/10 06:05:34;;;;;;;;;;;0.10;99.90;;;;;;5009139;28;20069;-69
2022/01/10 06:08:06;;;;;;;;;;;0.10;99.90;;;;;;5020243;28;21172;-68
2022/01/10 06:10:36;;;;;;;;;;;0.20;99.90;;;;;;5022689;28;20996;-70
2022/01/10 06:13:24;;;;;;;;;;;0.20;99.90;;;;;;5020767;28;20060;-70
2022/01/10 06:15:53;;;;;;;;;;;0.20;99.90;;;;;;5020749;28;20198;-69
2022/01/10 06:18:20;;;;;;;;;;;0.30;99.90;;;;;;5019799;28;20069;-70
2022/01/10 06:20:47;;;;;;;;;;;0.30;99.90;;;;;;5022991;28;20068;-67
2022/01/10 06:23:14;;;;;;;;;;;0.30;99.90;;;;;;5023707;28;20060;-68
2022/01/10 06:25:42;;;;;;;;;;;0.40;99.90;;;;;;5024099;28;20080;-67
2022/01/10 06:28:09;;;;;;;;;;;0.40;99.90;;;;;;5023348;28;20100;-68
2022/01/10 06:30:38;;;;;;;;;;;0.40;99.90;;;;;;5027217;22;20600;-68
2022/01/10 06:33:07;;;;;;;;;;;0.40;99.90;;;;;;5002084;28;20068;-67
2022/01/10 06:35:36;;;;;;;;;;;0.50;99.90;;;;;;5004068;28;20051;-68
2022/01/10 06:38:05;;;;;;;;;;;0.50;99.90;;;;;;5002757;28;20066;-68
2022/01/10 06:40:35;;;;;;;;;;;0.50;99.90;;;;;;5003527;28;20060;-68
2022/01/10 06:43:02;;;;;;;;;;;0.50;99.90;;;;;;4992169;28;20069;-68
2022/01/10 06:45:30;;;;;;;;;;;0.50;99.90;;;;;;5002383;28;20229;-68
2022/01/10 06:47:58;;;;;;;;;;;0.50;99.90;;;;;;5002032;28;20256;-68
2022/01/10 06:50:28;;;;;;;;;;;0.50;99.90;;;;;;5003862;28;20068;-68
2022/01/10 06:52:57;;;;;;;;;;;0.50;99.90;;;;;;5003113;28;20075;-68
2022/01/10 06:55:26;;;;;;;;;;;0.40;99.90;;;;;;5003583;28;20210;-68
2022/01/10 06:57:56;;;;;;;;;;;0.40;99.90;;;;;;5001955;28;20069;-69
2022/01/10 07:00:26;;;;;;;;;;;0.40;99.90;;;;;;5003802;28;20077;-68
2022/01/10 07:02:56;;;;;;;;;;;0.40;99.90;;;;;;5000556;28;20217;-68
2022/01/10 07:05:24;;;;;;;;;;;0.30;99.90;;;;;;5002400;28;20194;-69
2022/01/10 07:07:57;;;;;;;;;;;0.20;99.90;;;;;;5000065;28;20077;-68
2022/01/10 07:10:44;;;;;;;;;;;0.00;99.90;;;;;;4989791;28;20176;-69
2022/01/10 07:13:12;;;;;;;;;;;-0.10;99.90;;;;;;4997177;28;20074;-69
2022/01/10 07:15:39;;;;;;;;;;;-0.20;99.90;;;;;;4989402;28;20076;-69
2022/01/10 07:18:08;;;;;;;;;;;-0.20;99.90;;;;;;4994777;28;21049;-69
2022/01/10 07:20:39;;;;;;;;;;;-0.30;99.90;;;;;;4984779;28;20060;-69
2022/01/10 07:23:08;;;;;;;;;;;-0.30;99.90;;;;;;4993565;28;20077;-69
2022/01/10 07:25:36;;;;;;;;;;;-0.30;99.90;;;;;;4983737;28;21131;-68
2022/01/10 07:28:04;;;;;;;;;;;-0.30;99.90;;;;;;4992774;28;20112;-68
2022/01/10 07:30:31;;;;;;;;;;;-0.30;99.90;;;;;;4992486;28;20162;-70
2022/01/10 07:32:58;;;;;;;;;;;-0.40;99.90;;;;;;4985135;28;20271;-68
2022/01/10 07:35:25;;;;;;;;;;;-0.50;99.90;;;;;;4998907;28;20170;-68
2022/01/10 07:37:52;;;;;;;;;;;-0.50;99.90;;;;;;4994986;28;20074;-69
2022/01/10 07:40:21;;;;;;;;;;;-0.60;99.90;;;;;;4989744;28;20087;-68
2022/01/10 07:42:48;;;;;;;;;;;-0.70;99.90;;;;;;4984403;28;20124;-68
2022/01/10 07:45:22;;;;;;;;;;;-0.80;99.90;;;;;;4991140;28;20169;-68
2022/01/10 07:47:50;;;;;;;;;;;-0.70;99.90;;;;;;4991681;28;20201;-68
2022/01/10 07:50:17;;;;;;;;;;;-0.80;99.90;;;;;;4994295;28;20088;-68
2022/01/10 07:52:44;;;;;;;;;;;-0.70;99.90;;;;;;4989459;28;20060;-68
2022/01/10 07:55:11;;;;;;;;;;;-0.70;99.90;;;;;;5013281;28;20076;-68
2022/01/10 07:57:40;;;;;;;;;;;-0.70;99.90;;;;;;5016701;28;20068;-68
2022/01/10 08:00:08;;;;;;;;;;;-0.60;99.90;;;;;;4999858;28;21089;-68
2022/01/10 08:02:41;;;;;;;;;;;-0.60;99.90;;;;;;5002107;28;20162;-68
2022/01/10 08:05:09;;;;;;;;;;;-0.70;99.90;;;;;;5003458;28;21073;-68
2022/01/10 08:07:36;;;;;;;;;;;-0.70;99.90;;;;;;5003738;28;21100;-68
2022/01/10 08:10:03;;;;;;;;;;;-0.80;99.90;;;;;;4985557;28;21117;-68
2022/01/10 08:12:30;;;;;;;;;;;-0.70;99.90;;;;;;4996321;28;20084;-68
2022/01/10 08:14:59;;;;;;;;;;;-0.70;99.90;;;;;;4990434;28;20093;-68
2022/01/10 08:17:26;;;;;;;;;;;-0.70;99.90;;;;;;4988180;28;21154;-68
2022/01/10 08:19:53;;;;;;;;;;;-0.60;99.90;;;;;;4994001;28;20051;-68
2022/01/10 08:22:20;;;;;;;;;;;-0.60;99.90;;;;;;4995401;28;20068;-69
2022/01/10 08:24:49;;;;;;;;;;;-0.60;99.90;;;;;;4992885;28;20059;-69
2022/01/10 08:27:17;;;;;;;;;;;-0.50;99.90;;;;;;4997280;28;20154;-69
2022/01/10 08:29:44;;;;;;;;;;;-0.40;99.90;;;;;;5005348;28;21137;-69
2022/01/10 08:32:13;;;;;;;;;;;-0.20;99.90;;;;;;4985811;28;20059;-69
2022/01/10 08:34:40;;;;;;;;;;;-0.20;99.90;;;;;;4997465;28;20142;-69
2022/01/10 08:37:07;;;;;;;;;;;-0.10;99.90;;;;;;4995628;28;20097;-69
2022/01/10 08:39:34;;;;;;;;;;;-0.10;99.90;;;;;;5014566;28;20052;-69
2022/01/10 08:42:01;;;;;;;;;;;-0.10;99.90;;;;;;4996619;28;20092;-69
2022/01/10 08:44:28;;;;;;;;;;;0.00;99.90;;;;;;5004545;28;20069;-69
2022/01/10 08:46:55;;;;;;;;;;;0.00;99.90;;;;;;4992955;28;20062;-69
2022/01/10 08:49:24;;;;;;;;;;;0.10;99.90;;;;;;4996696;28;20153;-69
2022/01/10 08:51:54;;;;;;;;;;;0.20;99.90;;;;;;4986616;28;20061;-69
2022/01/10 08:54:22;;;;;;;;;;;0.20;99.90;;;;;;5003542;28;20195;-69
2022/01/10 08:56:49;;;;;;;;;;;0.30;99.90;;;;;;4988754;28;20063;-69
2022/01/10 08:59:16;;;;;;;;;;;0.40;99.90;;;;;;4990208;28;20084;-69
2022/01/10 09:01:43;;;;;;;;;;;0.40;99.90;;;;;;4997091;28;20195;-69
2022/01/10 09:04:15;;;;;;;;;;;0.40;99.90;;;;;;4986977;28;20076;-69
2022/01/10 09:06:45;;;;;;;;;;;0.50;99.90;;;;;;5000860;28;20309;-69
2022/01/10 09:09:12;;;;;;;;;;;0.50;99.90;;;;;;4997959;28;20171;-69
2022/01/10 09:11:39;;;;;;;;;;;0.60;99.90;;;;;;4990443;28;20076;-69
2022/01/10 09:14:07;;;;;;;;;;;0.70;99.90;;;;;;4995157;28;20067;-69
2022/01/10 09:16:34;;;;;;;;;;;0.80;99.90;;;;;;4993491;28;20083;-69
2022/01/10 09:19:01;;;;;;;;;;;0.90;99.90;;;;;;4997743;28;20145;-69
2022/01/10 09:21:28;;;;;;;;;;;1.00;99.90;;;;;;5004969;28;20077;-70
2022/01/10 09:23:57;;;;;;;;;;;1.10;99.90;;;;;;5004544;28;20060;-69
2022/01/10 09:26:24;;;;;;;;;;;1.20;99.90;;;;;;5005505;28;20145;-69
2022/01/10 09:28:52;;;;;;;;;;;1.20;99.90;;;;;;5004723;28;20060;-70
2022/01/10 09:31:19;;;;;;;;;;;1.30;99.90;;;;;;5005939;28;20149;-69
2022/01/10 09:33:52;;;;;;;;;;;1.40;99.90;;;;;;5004759;28;20306;-70
2022/01/10 09:36:19;;;;;;;;;;;1.50;99.90;;;;;;5004998;28;20058;-72
2022/01/10 09:38:47;;;;;;;;;;;1.60;99.90;;;;;;5004607;28;21243;-70
2022/01/10 09:41:15;;;;;;;;;;;1.70;99.90;;;;;;4997851;28;20074;-69
2022/01/10 09:43:48;;;;;;;;;;;1.80;99.90;;;;;;5003891;28;20157;-73
2022/01/10 09:46:16;;;;;;;;;;;2.00;99.90;;;;;;5004256;28;20173;-69
2022/01/10 09:48:43;;;;;;;;;;;2.10;99.90;;;;;;5003503;28;20074;-69
2022/01/10 09:51:11;;;;;;;;;;;2.20;99.90;;;;;;5002237;28;20145;-69
2022/01/10 09:53:38;;;;;;;;;;;2.30;99.90;;;;;;5000664;28;20068;-69
2022/01/10 09:56:05;;;;;;;;;;;2.40;99.90;;;;;;5004781;28;20174;-69
2022/01/10 09:58:34;;;;;;;;;;;2.50;99.90;;;;;;5004140;28;20092;-69
2022/01/10 10:01:02;;;;;;;;;;;2.60;99.90;;;;;;5004084;28;20096;-70
2022/01/10 10:03:29;;;;;;;;;;;2.70;99.90;;;;;;5002786;28;20051;-69
2022/01/10 10:05:57;;;;;;;;;;;2.90;99.90;;;;;;5004591;28;20068;-70
2022/01/10 10:08:24;;;;;;;;;;;3.00;99.90;;;;;;4986689;28;20060;-69
2022/01/10 10:10:52;;;;;;;;;;;3.10;99.90;;;;;;4989591;28;20140;-69
2022/01/10 10:13:19;;;;;;;;;;;3.20;99.90;;;;;;5003710;28;20090;-69
2022/01/10 10:15:48;;;;;;;;;;;3.30;99.90;;;;;;5003728;28;21142;-69
2022/01/10 10:18:17;;;;;;;;;;;3.50;99.90;;;;;;5003451;28;20059;-69
2022/01/10 10:20:45;;;;;;;;;;;3.60;99.90;;;;;;5004149;28;21277;-69
2022/01/10 10:23:14;;;;;;;;;;;3.80;99.90;;;;;;5004046;28;20066;-69
2022/01/10 10:25:46;;;;;;;;;;;4.00;99.90;;;;;;5004322;28;21429;-70
2022/01/10 10:28:14;;;;;;;;;;;4.20;99.90;;;;;;5003394;28;20178;-69
2022/01/10 10:30:41;;;;;;;;;;;4.50;99.90;;;;;;5002933;28;20259;-70
2022/01/10 10:33:14;;;;;;;;;;;4.70;99.90;;;;;;5003293;28;20052;-70
2022/01/10 10:35:42;;;;;;;;;;;5.00;99.90;;;;;;4999322;28;21149;-69
2022/01/10 10:38:09;;;;;;;;;;;5.00;99.90;;;;;;5009001;28;20069;-68
2022/01/10 10:40:39;;;;;;;;;;;5.10;99.90;;;;;;4984865;28;20060;-71
2022/01/10 10:43:07;;;;;;;;;;;5.30;99.90;;;;;;4983455;28;20142;-71
2022/01/10 10:45:35;;;;;;;;;;;5.40;99.90;;;;;;4984816;28;20061;-71
2022/01/10 10:48:05;;;;;;;;;;;5.80;99.90;;;;;;4983857;28;21076;-70
2022/01/10 10:50:41;;;;;;;;;;;7.40;99.90;;;;;;4984212;28;20141;-70
2022/01/10 10:53:09;;;;;;;;;;;10.90;99.90;;;;;;4983418;28;20071;-70
2022/01/10 10:55:38;;;;;;;;;;;13.20;99.90;;;;;;4983917;28;20451;-70
2022/01/10 10:58:05;;;;;;;;;;;14.70;99.90;;;;;;4983242;28;20171;-69
2022/01/10 11:00:33;;;;;;;;;;;16.00;99.90;;;;;;4983610;28;20179;-68
2022/01/10 11:03:00;;;;;;;;;;;16.00;99.90;;;;;;4982788;28;20069;-71
2022/01/10 11:05:29;;;;;;;;;;;17.30;99.90;;;;;;4983538;28;21039;-69
2022/01/10 11:07:57;;;;;;;;;;;18.30;99.90;;;;;;4995630;28;20076;-69
2022/01/10 11:10:25;;;;;;;;;;;18.10;99.90;;;;;;5002481;28;20132;-69
2022/01/10 11:12:53;;;;;;;;;;;18.60;99.90;;;;;;5002838;28;21065;-70
2022/01/10 11:15:20;;;;;;;;;;;19.10;99.90;;;;;;5003765;28;20068;-68
2022/01/10 11:17:48;;;;;;;;;;;19.90;99.90;;;;;;5003262;28;20051;-68
2022/01/10 11:20:16;;;;;;;;;;;20.50;99.90;;;;;;5003505;28;20263;-68
2022/01/10 11:22:44;;;;;;;;;;;21.30;99.90;;;;;;5002472;28;20060;-67
2022/01/10 11:25:26;;;;;;;;;;;22.20;99.90;;;;;;5004280;28;20052;-68
2022/01/10 11:27:57;;;;;;;;;;;22.50;99.90;;;;;;4998041;28;20059;-68
2022/01/10 11:30:34;;;;;;;;;;;22.80;99.90;;;;;;5002790;28;21055;-68
2022/01/10 11:33:07;;;;;;;;;;;23.00;99.90;;;;;;5006731;28;20052;-68
2022/01/10 11:35:36;;;;;;;;;;;22.90;99.90;;;;;;5007988;28;20066;-65
2022/01/10 11:38:16;;;;;;;;;;;23.30;99.90;;;;;;5007508;28;20257;-68
2022/01/10 11:40:43;;;;;;;;;;;23.70;99.90;;;;;;5007251;28;20067;-68
2022/01/10 11:43:27;;;;;;;;;;;24.50;99.90;;;;;;5006381;28;20060;-68
2022/01/10 11:46:06;;;;;;;;;;;25.00;99.90;;;;;;5007559;28;20191;-69
2022/01/10 11:48:42;;;;;;;;;;;25.00;99.90;;;;;;4999139;28;20147;-68
2022/01/10 11:51:12;;;;;;;;;;;25.00;99.90;;;;;;4994814;28;20178;-68
2022/01/10 11:53:41;;;;;;;;;;;24.10;99.90;;;;;;5000539;28;20274;-68
2022/01/10 11:56:20;;;;;;;;;;;23.30;99.90;;;;;;4986086;28;21172;-68
2022/01/10 11:59:03;;;;;;;;;;;23.70;99.90;;;;;;4994799;28;20096;-70
2022/01/10 12:01:35;;;;;;;;;;;24.20;99.90;;;;;;4992788;28;20160;-69
2022/01/10 12:04:03;;;;;;;;;;;24.70;99.90;;;;;;5005322;28;20075;-69
2022/01/10 12:06:30;;;;;;;;;;;24.80;99.90;;;;;;5003962;28;20582;-69
2022/01/10 12:08:57;;;;;;;;;;;25.00;99.90;;;;;;4986134;28;20069;-70
2022/01/10 12:11:25;;;;;;;;;;;25.50;99.90;;;;;;4985331;28;20108;-69
2022/01/10 12:13:53;;;;;;;;;;;25.50;99.90;;;;;;4985801;28;20060;-70
2022/01/10 12:16:21;;;;;;;;;;;25.80;99.90;;;;;;4994830;28;20069;-70
2022/01/10 12:18:51;;;;;;;;;;;25.50;99.90;;;;;;5004815;28;21160;-69
2022/01/10 12:21:20;;;;;;;;;;;25.10;99.90;;;;;;5005343;28;20051;-72
2022/01/10 12:23:48;;;;;;;;;;;24.40;99.90;;;;;;5004609;28;20318;-72
2022/01/10 12:26:17;;;;;;;;;;;24.00;99.90;;;;;;5005233;28;20051;-70
2022/01/10 12:28:46;;;;;;;;;;;24.80;99.90;;;;;;5004266;28;20115;-68
2022/01/10 12:31:14;;;;;;;;;;;23.40;99.90;;;;;;5006004;28;20510;-68
2022/01/10 12:33:41;;;;;;;;;;;23.60;99.90;;;;;;5005092;28;20072;-67
2022/01/10 12:36:10;;;;;;;;;;;23.70;99.90;;;;;;5005444;28;20088;-68
2022/01/10 12:38:38;;;;;;;;;;;23.70;99.90;;;;;;5003335;28;20201;-68
2022/01/10 12:41:05;;;;;;;;;;;23.60;99.90;;;;;;5005698;28;20075;-68
2022/01/10 12:43:33;;;;;;;;;;;23.50;99.90;;;;;;5003963;28;20051;-68
2022/01/10 12:46:00;;;;;;;;;;;23.90;99.90;;;;;;5005011;28;20080;-69
2022/01/10 12:48:27;;;;;;;;;;;23.90;99.90;;;;;;5004310;28;20081;-68
2022/01/10 12:50:54;;;;;;;;;;;24.50;99.90;;;;;;5004137;28;20100;-68
2022/01/10 12:53:23;;;;;;;;;;;24.60;99.90;;;;;;4991110;28;20069;-68
2022/01/10 12:55:50;;;;;;;;;;;24.40;99.90;;;;;;4985178;28;20075;-69
2022/01/10 12:58:17;;;;;;;;;;;24.50;99.90;;;;;;4984206;28;20108;-69
2022/01/10 13:00:45;;;;;;;;;;;23.70;99.90;;;;;;4984638;28;20060;-68
2022/01/10 13:03:12;;;;;;;;;;;23.50;99.90;;;;;;4984534;28;20121;-68
2022/01/10 13:05:39;;;;;;;;;;;23.80;99.90;;;;;;4985389;28;20155;-68
2022/01/10 13:08:07;;;;;;;;;;;23.50;99.90;;;;;;4999221;28;20068;-68
2022/01/10 13:10:38;;;;;;;;;;;23.80;99.90;;;;;;5000823;28;20166;-68
2022/01/10 13:13:05;;;;;;;;;;;24.20;99.90;;;;;;4985523;28;20077;-69
2022/01/10 13:15:33;;;;;;;;;;;24.00;99.90;;;;;;4985723;28;20066;-68
2022/01/10 13:18:00;;;;;;;;;;;23.80;99.90;;;;;;4983672;28;21247;-68
2022/01/10 13:20:29;;;;;;;;;;;24.30;99.90;;;;;;4984999;28;20162;-69
2022/01/10 13:23:01;;;;;;;;;;;24.90;99.90;;;;;;4984471;28;20153;-68
2022/01/10 13:25:32;;;;;;;;;;;24.70;99.90;;;;;;4984774;28;21206;-68
2022/01/10 13:28:07;;;;;;;;;;;24.70;99.90;;;;;;4983989;28;20067;-68
2022/01/10 13:30:35;;;;;;;;;;;24.50;99.90;;;;;;4989142;28;20109;-68
2022/01/10 13:33:04;;;;;;;;;;;23.90;99.90;;;;;;5004258;28;20065;-69
2022/01/10 13:35:31;;;;;;;;;;;24.00;99.90;;;;;;5002679;28;20067;-68
2022/01/10 13:38:01;;;;;;;;;;;23.50;99.90;;;;;;4997007;28;20083;-70
2022/01/10 13:40:30;;;;;;;;;;;22.70;99.90;;;;;;5004099;28;21141;-70
2022/01/10 13:43:03;;;;;;;;;;;22.40;99.90;;;;;;4998464;28;20074;-70
2022/01/10 13:45:43;;;;;;;;;;;22.90;99.90;;;;;;5017668;28;20133;-70
2022/01/10 13:48:12;;;;;;;;;;;22.60;99.90;;;;;;4995831;28;20061;-69
2022/01/10 13:50:43;;;;;;;;;;;22.60;99.90;;;;;;5003661;28;20060;-69
2022/01/10 13:53:15;;;;;;;;;;;22.80;99.90;;;;;;5004933;28;20075;-69
2022/01/10 13:55:43;;;;;;;;;;;23.00;99.90;;;;;;4994059;28;20738;-69
2022/01/10 13:58:23;;;;;;;;;;;22.60;99.90;;;;;;4984705;28;20067;-69
2022/01/10 14:00:55;;;;;;;;;;;21.80;99.90;;;;;;4984457;28;20153;-70
2022/01/10 14:03:24;;;;;;;;;;;21.70;99.90;;;;;;4984750;28;21165;-69
2022/01/10 14:06:05;;;;;;;;;;;20.80;99.90;;;;;;5000341;28;20475;-70
2022/01/10 14:08:32;;;;;;;;;;;21.00;99.90;;;;;;5002452;28;20211;-69
2022/01/10 14:11:01;;;;;;;;;;;21.60;99.90;;;;;;5003101;28;20051;-69
2022/01/10 14:13:28;;;;;;;;;;;21.90;99.90;;;;;;4994103;28;20087;-69
2022/01/10 14:15:57;;;;;;;;;;;21.90;99.90;;;;;;4998924;28;20107;-70
2022/01/10 14:18:24;;;;;;;;;;;21.00;99.90;;;;;;4986521;28;20069;-70
2022/01/10 14:20:52;;;;;;;;;;;20.60;99.90;;;;;;5019941;28;20060;-70
2022/01/10 14:23:19;;;;;;;;;;;20.60;99.90;;;;;;5020557;28;20059;-70
2022/01/10 14:25:46;;;;;;;;;;;19.90;99.90;;;;;;5020951;28;20060;-70
2022/01/10 14:28:13;;;;;;;;;;;19.50;99.90;;;;;;5020601;28;20067;-69
2022/01/10 14:30:44;;;;;;;;;;;19.10;99.90;;;;;;5019316;28;20998;-70
2022/01/10 14:33:14;;;;;;;;;;;18.90;99.90;;;;;;5019867;28;21114;-69
2022/01/10 14:35:41;;;;;;;;;;;18.70;99.90;;;;;;5004221;28;20099;-69